createdAt,value
2019-01-23T00:00:03.449Z,97.25
2019-01-23T00:01:09.611Z,96.96
2019-01-23T00:02:15.978Z,97.18
2019-01-23T00:03:21.986Z,97.15
2019-01-23T00:04:28.363Z,97.25
2019-01-23T00:05:34.721Z,97.27
2019-01-23T00:06:41.125Z,97.40
2019-01-23T00:07:47.465Z,97.42
2019-01-23T00:08:54.337Z,97.45
2019-01-23T00:10:00.999Z,97.56
2019-01-23T00:11:07.866Z,97.51
2019-01-23T00:12:14.515Z,97.41
2019-01-23T00:13:20.585Z,97.59
2019-01-23T00:14:26.932Z,97.61
2019-01-23T00:15:32.926Z,97.34
2019-01-23T00:16:39.301Z,97.23
2019-01-23T00:17:45.677Z,97.26
2019-01-23T00:18:52.016Z,97.14
2019-01-23T00:19:59.307Z,96.98
2019-01-23T00:21:04.956Z,96.78
2019-01-23T00:22:11.257Z,96.85
2019-01-23T00:23:17.286Z,96.67
2019-01-23T00:24:23.656Z,96.65
2019-01-23T00:25:29.996Z,96.86
2019-01-23T00:26:36.387Z,96.88
2019-01-23T00:27:42.730Z,96.56
2019-01-23T00:28:49.074Z,96.53
2019-01-23T00:29:55.397Z,96.55
2019-01-23T00:31:02.208Z,96.68
2019-01-23T00:32:09.108Z,96.83
2019-01-23T00:33:15.474Z,97.16
2019-01-23T00:34:21.453Z,97.03
2019-01-23T00:35:27.842Z,97.03
2019-01-23T00:36:34.237Z,96.85
2019-01-23T00:37:40.564Z,96.80
2019-01-23T00:38:46.937Z,96.68
2019-01-23T00:39:53.343Z,96.86
2019-01-23T00:40:59.712Z,96.97
2019-01-23T00:42:05.725Z,97.69
2019-01-23T00:43:12.104Z,97.86
2019-01-23T00:44:18.487Z,97.57
2019-01-23T00:45:24.877Z,97.13
2019-01-23T00:46:31.213Z,96.99
2019-01-23T00:47:37.504Z,97.01
2019-01-23T00:48:43.486Z,96.92
2019-01-23T00:49:49.815Z,96.73
2019-01-23T00:50:56.187Z,95.94
2019-01-23T00:52:03.317Z,95.61
2019-01-23T00:53:10.322Z,94.76
2019-01-23T00:54:16.388Z,94.71
2019-01-23T00:55:22.700Z,95.54
2019-01-23T00:56:29.120Z,95.79
2019-01-23T00:57:35.578Z,95.68
2019-01-23T00:58:41.971Z,95.79
2019-01-23T00:59:48.362Z,96.08
2019-01-23T01:00:54.412Z,96.42
2019-01-23T01:02:00.753Z,96.52
2019-01-23T01:03:06.460Z,96.28
2019-01-23T01:04:13.791Z,96.28
2019-01-23T01:05:19.446Z,96.45
2019-01-23T01:06:26.081Z,96.50
2019-01-23T01:07:32.509Z,96.64
2019-01-23T01:08:38.873Z,96.58
2019-01-23T01:09:44.816Z,96.61
2019-01-23T01:10:50.802Z,96.52
2019-01-23T01:11:57.174Z,96.48
2019-01-23T01:13:04.002Z,96.64
2019-01-23T01:14:10.445Z,96.75
2019-01-23T01:15:16.105Z,97.83
2019-01-23T01:16:22.470Z,97.92
2019-01-23T01:17:28.887Z,97.58
2019-01-23T01:18:35.258Z,97.17
2019-01-23T01:19:41.647Z,98.08
2019-01-23T01:20:48.029Z,98.23
2019-01-23T01:21:54.394Z,99.31
2019-01-23T01:23:00.759Z,99.62
2019-01-23T01:24:06.777Z,99.39
2019-01-23T01:25:14.141Z,99.53
2019-01-23T01:26:20.550Z,99.26
2019-01-23T01:27:26.872Z,99.16
2019-01-23T01:28:33.208Z,98.69
2019-01-23T01:29:39.582Z,98.88
2019-01-23T01:30:45.560Z,99.30
2019-01-23T01:31:51.866Z,99.33
2019-01-23T01:32:58.273Z,99.75
2019-01-23T01:34:05.230Z,99.68
2019-01-23T01:35:11.326Z,98.97
2019-01-23T01:36:17.369Z,98.33
2019-01-23T01:37:23.695Z,98.26
2019-01-23T01:38:30.000Z,98.83
2019-01-23T01:39:36.316Z,99.24
2019-01-23T01:40:42.628Z,99.12
2019-01-23T01:41:48.608Z,100.00
2019-01-23T01:42:54.973Z,100.00
2019-01-23T01:44:01.352Z,100.00
2019-01-23T01:45:07.015Z,100.00
2019-01-23T01:46:13.333Z,100.00
2019-01-23T01:47:19.340Z,100.00
2019-01-23T01:48:25.379Z,100.00
2019-01-23T01:49:31.739Z,100.00
2019-01-23T01:50:38.095Z,100.00
2019-01-23T01:51:44.107Z,100.00
2019-01-23T01:52:50.145Z,100.00
2019-01-23T01:53:56.554Z,100.00
2019-01-23T01:55:03.652Z,100.00
2019-01-23T01:56:10.533Z,100.00
2019-01-23T01:57:16.914Z,100.00
2019-01-23T01:58:23.316Z,100.00
2019-01-23T01:59:29.756Z,100.00
2019-01-23T02:00:35.489Z,100.00
2019-01-23T02:01:40.474Z,100.00
2019-01-23T02:02:46.791Z,100.00
2019-01-23T02:03:53.164Z,100.00
2019-01-23T02:04:59.548Z,100.00
2019-01-23T02:06:05.173Z,100.00
2019-01-23T02:07:11.498Z,100.00
2019-01-23T02:08:17.908Z,100.00
2019-01-23T02:09:24.507Z,100.00
2019-01-23T02:10:31.006Z,100.00
2019-01-23T02:11:37.345Z,100.00
2019-01-23T02:12:43.017Z,100.00
2019-01-23T02:13:49.048Z,100.00
2019-01-23T02:14:55.450Z,100.00
2019-01-23T02:16:02.333Z,100.00
2019-01-23T02:17:09.140Z,100.00
2019-01-23T02:18:15.483Z,100.00
2019-01-23T02:19:21.882Z,100.00
2019-01-23T02:20:27.541Z,100.00
2019-01-23T02:21:33.905Z,100.00
2019-01-23T02:22:39.921Z,100.00
2019-01-23T02:23:46.268Z,100.00
2019-01-23T02:24:52.648Z,100.00
2019-01-23T02:25:59.003Z,100.00
2019-01-23T02:27:04.674Z,100.00
2019-01-23T02:28:10.624Z,100.00
2019-01-23T02:29:16.996Z,100.00
2019-01-23T02:30:22.611Z,100.00
2019-01-23T02:31:29.040Z,99.72
2019-01-23T02:32:35.441Z,99.30
2019-01-23T02:33:41.802Z,99.14
2019-01-23T02:34:48.144Z,99.38
2019-01-23T02:35:54.479Z,99.78
2019-01-23T02:37:00.816Z,99.93
2019-01-23T02:38:07.010Z,99.26
2019-01-23T02:39:13.398Z,99.01
2019-01-23T02:40:19.066Z,98.88
2019-01-23T02:41:25.403Z,98.59
2019-01-23T02:42:31.804Z,98.58
2019-01-23T02:43:38.157Z,98.63
2019-01-23T02:44:44.530Z,98.64
2019-01-23T02:45:50.933Z,98.81
2019-01-23T02:46:57.297Z,98.28
2019-01-23T02:48:03.621Z,97.84
2019-01-23T02:49:10.023Z,98.06
2019-01-23T02:50:15.744Z,98.10
2019-01-23T02:51:22.041Z,98.14
2019-01-23T02:52:28.392Z,98.49
2019-01-23T02:53:34.755Z,98.55
2019-01-23T02:54:41.298Z,97.62
2019-01-23T02:55:47.723Z,96.78
2019-01-23T02:56:54.071Z,96.53
2019-01-23T02:58:00.425Z,97.01
2019-01-23T02:59:06.781Z,97.55
2019-01-23T03:00:13.193Z,97.54
2019-01-23T03:01:19.573Z,96.57
2019-01-23T03:02:26.250Z,96.59
2019-01-23T03:03:32.779Z,97.15
2019-01-23T03:04:39.146Z,96.84
2019-01-23T03:05:45.198Z,95.70
2019-01-23T03:06:51.610Z,95.11
2019-01-23T03:07:57.955Z,95.40
2019-01-23T03:09:03.398Z,95.61
2019-01-23T03:10:09.218Z,95.48
2019-01-23T03:11:15.615Z,95.58
2019-01-23T03:12:22.016Z,95.43
2019-01-23T03:13:28.377Z,95.88
2019-01-23T03:14:34.763Z,96.37
2019-01-23T03:15:41.138Z,96.48
2019-01-23T03:16:47.530Z,95.51
2019-01-23T03:17:53.852Z,95.79
2019-01-23T03:19:00.232Z,96.80
2019-01-23T03:20:06.095Z,97.30
2019-01-23T03:21:12.531Z,97.68
2019-01-23T03:22:18.960Z,97.41
2019-01-23T03:23:25.114Z,96.68
2019-01-23T03:24:31.472Z,95.98
2019-01-23T03:25:37.942Z,96.30
2019-01-23T03:26:44.317Z,97.59
2019-01-23T03:27:50.697Z,98.20
2019-01-23T03:28:57.072Z,98.39
2019-01-23T03:30:02.736Z,98.40
2019-01-23T03:31:09.094Z,97.32
2019-01-23T03:32:15.863Z,96.19
2019-01-23T03:33:22.299Z,95.93
2019-01-23T03:34:28.677Z,96.50
2019-01-23T03:35:35.170Z,96.97
2019-01-23T03:36:41.516Z,97.41
2019-01-23T03:37:47.216Z,97.57
2019-01-23T03:38:53.593Z,97.43
2019-01-23T03:40:00.037Z,97.72
2019-01-23T03:41:06.090Z,97.60
2019-01-23T03:42:12.410Z,97.73
2019-01-23T03:43:18.789Z,97.81
2019-01-23T03:44:25.191Z,98.28
2019-01-23T03:45:31.886Z,98.17
2019-01-23T03:46:38.213Z,98.05
2019-01-23T03:47:44.498Z,98.17
2019-01-23T03:48:50.866Z,97.97
2019-01-23T03:49:57.252Z,97.75
2019-01-23T03:51:03.646Z,97.79
2019-01-23T03:52:09.689Z,97.96
2019-01-23T03:53:15.937Z,98.01
2019-01-23T03:54:22.282Z,98.05
2019-01-23T03:55:28.675Z,97.94
2019-01-23T03:56:35.100Z,97.15
2019-01-23T03:57:41.177Z,96.51
2019-01-23T03:58:47.161Z,96.50
2019-01-23T03:59:53.536Z,96.60
2019-01-23T04:00:59.165Z,96.69
2019-01-23T04:02:04.846Z,96.66
2019-01-23T04:03:11.331Z,96.49
2019-01-23T04:04:17.382Z,96.83
2019-01-23T04:05:23.417Z,97.00
2019-01-23T04:06:29.445Z,96.82
2019-01-23T04:07:36.853Z,96.84
2019-01-23T04:08:42.902Z,96.91
2019-01-23T04:09:50.016Z,96.91
2019-01-23T04:10:56.532Z,96.93
2019-01-23T04:12:02.501Z,96.84
2019-01-23T04:13:08.924Z,96.90
2019-01-23T04:14:14.970Z,97.05
2019-01-23T04:15:21.321Z,97.07
2019-01-23T04:16:27.728Z,97.05
2019-01-23T04:17:34.149Z,97.21
2019-01-23T04:18:40.506Z,97.18
2019-01-23T04:19:46.819Z,97.16
2019-01-23T04:20:53.217Z,96.33
2019-01-23T04:21:59.157Z,96.39
2019-01-23T04:23:05.297Z,96.53
2019-01-23T04:24:10.901Z,96.25
2019-01-23T04:25:16.586Z,96.05
2019-01-23T04:26:23.025Z,96.22
2019-01-23T04:27:29.493Z,96.38
2019-01-23T04:28:36.421Z,96.40
2019-01-23T04:29:43.077Z,96.33
2019-01-23T04:30:49.457Z,96.00
2019-01-23T04:31:56.251Z,95.90
2019-01-23T04:33:02.657Z,96.36
2019-01-23T04:34:09.065Z,96.38
2019-01-23T04:35:15.414Z,96.27
2019-01-23T04:36:21.831Z,96.66
2019-01-23T04:37:28.528Z,96.86
2019-01-23T04:38:34.884Z,97.09
2019-01-23T04:39:41.629Z,97.08
2019-01-23T04:40:48.026Z,96.93
2019-01-23T04:41:54.379Z,96.93
2019-01-23T04:43:00.769Z,96.93
2019-01-23T04:44:07.764Z,96.79
2019-01-23T04:45:14.335Z,96.62
2019-01-23T04:46:20.698Z,96.69
2019-01-23T04:47:27.052Z,97.00
2019-01-23T04:48:33.493Z,97.02
2019-01-23T04:49:39.834Z,96.93
2019-01-23T04:52:30.972Z,96.30
2019-01-23T04:53:37.129Z,96.37
2019-01-23T04:54:43.564Z,96.48
2019-01-23T04:55:50.029Z,96.85
2019-01-23T04:56:56.367Z,97.15
2019-01-23T04:58:03.294Z,97.45
2019-01-23T04:59:09.760Z,97.40
2019-01-23T05:00:15.325Z,97.34
2019-01-23T05:01:21.517Z,97.19
2019-01-23T05:02:27.821Z,97.02
2019-01-23T05:03:34.238Z,96.91
2019-01-23T05:04:40.558Z,97.00
2019-01-23T05:05:46.873Z,97.17
2019-01-23T05:06:53.352Z,97.12
2019-01-23T05:07:59.692Z,97.00
2019-01-23T05:09:05.389Z,96.87
2019-01-23T05:10:11.928Z,96.60
2019-01-23T05:11:18.407Z,96.46
2019-01-23T05:12:25.448Z,96.48
2019-01-23T05:13:32.389Z,96.68
2019-01-23T05:14:38.741Z,96.99
2019-01-23T05:15:45.079Z,97.40
2019-01-23T05:16:51.421Z,97.46
2019-01-23T05:17:57.791Z,97.20
2019-01-23T05:19:03.792Z,97.08
2019-01-23T05:20:10.162Z,97.22
2019-01-23T05:21:16.970Z,97.33
2019-01-23T05:22:23.393Z,97.38
2019-01-23T05:23:29.877Z,97.46
2019-01-23T05:24:36.284Z,97.56
2019-01-23T05:25:42.647Z,97.63
2019-01-23T05:26:49.017Z,97.68
2019-01-23T05:27:55.565Z,97.57
2019-01-23T05:29:01.994Z,97.41
2019-01-23T05:30:11.578Z,97.07
2019-01-23T05:31:18.254Z,96.91
2019-01-23T05:32:24.760Z,96.72
2019-01-23T05:33:31.128Z,96.64
2019-01-23T05:34:37.659Z,96.65
2019-01-23T05:35:43.970Z,96.56
2019-01-23T05:36:50.300Z,96.69
2019-01-23T05:37:56.682Z,96.75
2019-01-23T05:39:02.809Z,96.70
2019-01-23T05:40:08.760Z,96.71
2019-01-23T05:41:15.519Z,96.40
2019-01-23T05:42:21.904Z,96.45
2019-01-23T05:43:28.297Z,96.50
2019-01-23T05:44:34.676Z,96.94
2019-01-23T05:45:40.960Z,97.01
2019-01-23T05:46:47.344Z,96.88
2019-01-23T05:47:53.710Z,96.74
2019-01-23T05:49:00.098Z,96.75
2019-01-23T05:50:06.553Z,96.96
2019-01-23T05:51:12.922Z,97.05
2019-01-23T05:52:19.324Z,97.77
2019-01-23T05:53:25.740Z,98.61
2019-01-23T05:54:32.175Z,98.86
2019-01-23T05:55:38.593Z,98.71
2019-01-23T05:56:44.990Z,98.66
2019-01-23T05:57:51.344Z,98.82
2019-01-23T05:58:57.725Z,98.86
2019-01-23T06:00:03.349Z,98.87
2019-01-23T06:01:09.728Z,98.90
2019-01-23T06:02:15.794Z,98.89
2019-01-23T06:03:22.325Z,98.79
2019-01-23T06:04:28.369Z,98.67
2019-01-23T06:05:34.846Z,98.62
2019-01-23T06:06:41.178Z,98.18
2019-01-23T06:07:47.524Z,97.83
2019-01-23T06:08:53.565Z,97.51
2019-01-23T06:09:59.988Z,97.16
2019-01-23T06:11:05.995Z,97.57
2019-01-23T06:12:12.383Z,97.97
2019-01-23T06:13:19.032Z,98.09
2019-01-23T06:14:25.084Z,98.20
2019-01-23T06:15:31.485Z,98.14
2019-01-23T06:16:38.365Z,98.11
2019-01-23T06:17:44.849Z,98.01
2019-01-23T06:18:51.276Z,97.86
2019-01-23T06:19:57.623Z,97.84
2019-01-23T06:21:03.670Z,98.01
2019-01-23T06:22:10.044Z,97.98
2019-01-23T06:23:16.422Z,98.07
2019-01-23T06:24:22.764Z,98.12
2019-01-23T06:25:29.115Z,98.25
2019-01-23T06:26:35.457Z,99.37
2019-01-23T06:27:42.274Z,99.40
2019-01-23T06:28:48.723Z,99.35
2019-01-23T06:29:55.043Z,99.42
2019-01-23T06:31:01.406Z,99.47
2019-01-23T06:32:07.896Z,99.95
2019-01-23T06:33:14.256Z,100.00
2019-01-23T06:34:20.728Z,100.00
2019-01-23T06:35:26.728Z,100.00
2019-01-23T06:36:33.085Z,100.00
2019-01-23T06:37:39.137Z,100.00
2019-01-23T06:38:45.492Z,100.00
2019-01-23T06:39:51.852Z,100.00
2019-01-23T06:40:58.182Z,99.90
2019-01-23T06:42:04.171Z,99.75
2019-01-23T06:43:10.555Z,99.60
2019-01-23T06:44:17.032Z,99.38
2019-01-23T06:45:23.346Z,99.19
2019-01-23T06:46:29.699Z,99.16
2019-01-23T06:47:35.675Z,98.94
2019-01-23T06:48:42.086Z,98.47
2019-01-23T06:49:48.523Z,98.29
2019-01-23T06:50:54.879Z,98.13
2019-01-23T06:52:01.207Z,98.18
2019-01-23T06:53:13.825Z,98.05
2019-01-23T06:54:13.647Z,97.94
2019-01-23T06:55:19.332Z,97.66
2019-01-23T06:56:25.729Z,97.70
2019-01-23T06:57:32.064Z,97.68
2019-01-23T06:58:38.396Z,97.47
2019-01-23T06:59:44.717Z,97.49
2019-01-23T07:00:51.035Z,97.52
2019-01-23T07:01:56.763Z,97.41
2019-01-23T07:03:02.440Z,97.42
2019-01-23T07:04:08.802Z,97.65
2019-01-23T07:05:14.497Z,97.84
2019-01-23T07:06:20.872Z,97.79
2019-01-23T07:07:27.175Z,97.67
2019-01-23T07:08:33.550Z,97.63
2019-01-23T07:09:39.958Z,97.79
2019-01-23T07:10:47.307Z,97.83
2019-01-23T07:11:53.875Z,97.83
2019-01-23T07:13:00.226Z,97.81
2019-01-23T07:14:06.610Z,97.92
2019-01-23T07:15:12.686Z,98.47
2019-01-23T07:16:19.042Z,98.62
2019-01-23T07:17:25.512Z,99.14
2019-01-23T07:18:31.918Z,100.00
2019-01-23T07:19:38.314Z,100.00
2019-01-23T07:20:44.664Z,100.00
2019-01-23T07:21:51.060Z,100.00
2019-01-23T07:22:57.407Z,100.00
2019-01-23T07:24:03.812Z,100.00
2019-01-23T07:25:09.517Z,100.00
2019-01-23T07:26:15.879Z,100.00
2019-01-23T07:27:22.289Z,100.00
2019-01-23T07:28:28.683Z,100.00
2019-01-23T07:29:35.485Z,100.00
2019-01-23T07:30:41.405Z,100.00
2019-01-23T07:31:47.959Z,100.00
2019-01-23T07:32:54.186Z,100.00
2019-01-23T07:34:00.405Z,100.00
2019-01-23T07:35:06.379Z,100.00
2019-01-23T07:36:12.569Z,100.00
2019-01-23T07:37:19.160Z,100.00
2019-01-23T07:38:25.524Z,100.00
2019-01-23T07:39:31.950Z,100.00
2019-01-23T07:40:38.409Z,100.00
2019-01-23T07:41:45.711Z,100.00
2019-01-23T07:42:52.510Z,100.00
2019-01-23T07:43:58.893Z,100.00
2019-01-23T07:45:05.234Z,100.00
2019-01-23T07:46:11.638Z,100.00
2019-01-23T07:47:17.993Z,100.00
2019-01-23T07:48:24.367Z,100.00
2019-01-23T07:49:30.757Z,100.00
2019-01-23T07:50:37.117Z,100.00
2019-01-23T07:51:43.500Z,100.00
2019-01-23T07:52:49.586Z,100.00
2019-01-23T07:53:55.913Z,100.00
2019-01-23T07:55:02.275Z,100.00
2019-01-23T07:56:08.811Z,100.00
2019-01-23T07:57:15.180Z,100.00
2019-01-23T07:58:21.526Z,100.00
2019-01-23T07:59:27.956Z,100.00
2019-01-23T08:00:34.428Z,100.00
2019-01-23T08:01:40.457Z,100.00
2019-01-23T08:02:46.202Z,100.00
2019-01-23T08:03:52.562Z,100.00
2019-01-23T08:04:59.013Z,100.00
2019-01-23T08:06:05.405Z,100.00
2019-01-23T08:07:11.825Z,100.00
2019-01-23T08:08:18.162Z,100.00
2019-01-23T08:09:24.556Z,100.00
2019-01-23T08:10:31.042Z,100.00
2019-01-23T08:11:37.442Z,100.00
2019-01-23T08:12:43.090Z,100.00
2019-01-23T08:13:49.547Z,100.00
2019-01-23T08:14:55.911Z,100.00
2019-01-23T08:16:02.259Z,100.00
2019-01-23T08:17:08.330Z,100.00
2019-01-23T08:18:14.458Z,100.00
2019-01-23T08:19:20.843Z,100.00
2019-01-23T08:20:26.658Z,100.00
2019-01-23T08:21:33.116Z,100.00
2019-01-23T08:22:39.506Z,100.00
2019-01-23T08:23:45.867Z,100.00
2019-01-23T08:24:52.489Z,100.00
2019-01-23T08:25:58.947Z,100.00
2019-01-23T08:27:07.129Z,100.00
2019-01-23T08:28:10.884Z,100.00
2019-01-23T08:29:17.297Z,100.00
2019-01-23T08:30:23.851Z,100.00
2019-01-23T08:31:29.952Z,100.00
2019-01-23T08:32:35.744Z,100.00
2019-01-23T08:33:42.144Z,100.00
2019-01-23T08:34:48.531Z,100.00
2019-01-23T08:35:54.580Z,100.00
2019-01-23T08:37:00.952Z,100.00
2019-01-23T08:38:07.391Z,100.00
2019-01-23T08:39:13.787Z,100.00
2019-01-23T08:40:19.544Z,100.00
2019-01-23T08:41:25.907Z,100.00
2019-01-23T08:42:32.273Z,100.00
2019-01-23T08:43:38.678Z,100.00
2019-01-23T08:44:45.042Z,100.00
2019-01-23T08:45:51.703Z,100.00
2019-01-23T08:46:58.069Z,100.00
2019-01-23T08:48:04.097Z,100.00
2019-01-23T08:49:10.509Z,100.00
2019-01-23T09:02:20.131Z,100.00
2019-01-23T09:03:26.503Z,100.00
2019-01-23T09:04:32.892Z,100.00
2019-01-23T09:05:39.310Z,100.00
2019-01-23T09:06:45.706Z,100.00
2019-01-23T09:07:51.767Z,100.00
2019-01-23T09:08:58.149Z,100.00
2019-01-23T09:10:03.803Z,100.00
2019-01-23T09:11:10.494Z,100.00
2019-01-23T09:12:17.037Z,100.00
2019-01-23T09:13:23.495Z,100.00
2019-01-23T09:14:29.902Z,100.00
2019-01-23T09:15:35.945Z,100.00
2019-01-23T09:16:42.379Z,100.00
2019-01-23T09:17:48.371Z,100.00
2019-01-23T09:18:53.989Z,100.00
2019-01-23T09:20:00.423Z,100.00
2019-01-23T09:21:06.794Z,100.00
2019-01-23T09:22:13.250Z,100.00
2019-01-23T09:23:19.566Z,100.00
2019-01-23T09:24:25.930Z,100.00
2019-01-23T09:25:31.945Z,100.00
2019-01-23T09:26:38.334Z,100.00
2019-01-23T09:27:44.339Z,100.00
2019-01-23T09:28:50.922Z,100.00
2019-01-23T09:29:57.309Z,100.00
2019-01-23T09:31:05.655Z,100.00
2019-01-23T09:32:18.748Z,100.00
2019-01-23T09:33:29.403Z,100.00
2019-01-23T09:34:36.484Z,100.00
2019-01-23T09:35:43.540Z,100.00
2019-01-23T09:37:05.759Z,100.00
2019-01-23T09:38:14.772Z,100.00
2019-01-23T09:39:30.412Z,100.00
2019-01-23T09:40:36.079Z,100.00
2019-01-23T09:41:49.353Z,100.00
2019-01-23T09:43:00.505Z,100.00
2019-01-23T09:44:22.017Z,100.00
2019-01-23T09:45:30.733Z,100.00
2019-01-23T09:46:53.002Z,100.00
2019-01-23T09:48:10.131Z,100.00
2019-01-23T09:49:19.429Z,100.00
2019-01-23T09:50:34.604Z,100.00
2019-01-23T09:53:24.502Z,100.00
2019-01-23T09:54:30.612Z,100.00
2019-01-23T09:55:36.991Z,100.00
2019-01-23T09:56:42.663Z,100.00
2019-01-23T09:57:48.308Z,99.64
2019-01-23T09:58:54.665Z,99.76
2019-01-23T10:00:01.086Z,100.00
2019-01-23T10:01:07.443Z,100.00
2019-01-23T10:02:13.822Z,99.56
2019-01-23T10:03:23.051Z,99.48
2019-01-23T10:04:25.840Z,99.77
2019-01-23T10:05:32.262Z,99.27
2019-01-23T10:06:38.305Z,98.92
2019-01-23T10:07:44.694Z,98.92
2019-01-23T10:08:51.026Z,99.48
2019-01-23T10:09:57.442Z,99.48
2019-01-23T10:11:03.817Z,98.76
2019-01-23T10:12:09.859Z,98.72
2019-01-23T10:13:16.203Z,98.86
2019-01-23T10:14:22.215Z,98.56
2019-01-23T10:15:33.269Z,98.45
2019-01-23T10:16:39.562Z,98.59
2019-01-23T10:17:46.166Z,98.22
2019-01-23T10:18:56.103Z,98.49
2019-01-23T10:19:59.081Z,98.17
2019-01-23T10:21:04.750Z,97.70
2019-01-23T10:22:10.743Z,97.62
2019-01-23T10:23:17.137Z,97.93
2019-01-23T10:24:23.483Z,98.18
2019-01-23T10:25:29.903Z,98.07
2019-01-23T10:26:36.340Z,97.71
2019-01-23T10:27:42.721Z,98.01
2019-01-23T10:28:49.104Z,97.43
2019-01-23T10:29:55.500Z,97.23
2019-01-23T10:31:06.544Z,97.59
2019-01-23T10:32:07.981Z,97.81
2019-01-23T10:33:13.985Z,97.72
2019-01-23T10:34:20.415Z,97.36
2019-01-23T10:35:26.131Z,96.71
2019-01-23T10:36:32.520Z,96.42
2019-01-23T10:37:38.508Z,96.80
2019-01-23T10:38:44.859Z,97.30
2019-01-23T10:39:52.317Z,97.17
2019-01-23T10:40:57.678Z,97.34
2019-01-23T10:42:03.369Z,96.66
2019-01-23T10:43:09.387Z,96.61
2019-01-23T10:44:15.699Z,96.32
2019-01-23T10:45:21.755Z,96.39
2019-01-23T10:46:28.655Z,96.68
2019-01-23T10:47:34.669Z,96.94
2019-01-23T10:48:41.021Z,96.75
2019-01-23T10:49:47.335Z,96.69
2019-01-23T10:50:53.368Z,96.00
2019-01-23T10:51:59.349Z,97.32
2019-01-23T10:53:05.376Z,96.36
2019-01-23T10:54:11.435Z,96.72
2019-01-23T10:55:17.856Z,96.86
2019-01-23T10:56:23.986Z,96.53
2019-01-23T10:57:30.013Z,95.70
2019-01-23T10:58:36.367Z,95.67
2019-01-23T10:59:42.743Z,95.83
2019-01-23T11:00:49.158Z,96.15
2019-01-23T11:01:55.124Z,95.55
2019-01-23T11:03:01.084Z,95.30
2019-01-23T11:04:06.797Z,95.27
2019-01-23T11:05:12.504Z,95.49
2019-01-23T11:06:18.917Z,95.61
2019-01-23T11:07:25.282Z,95.64
2019-01-23T11:08:31.706Z,95.68
2019-01-23T11:09:38.134Z,95.26
2019-01-23T11:10:44.119Z,94.84
2019-01-23T11:11:50.989Z,95.20
2019-01-23T11:12:57.477Z,94.63
2019-01-23T11:14:03.963Z,94.45
2019-01-23T11:15:09.626Z,95.50
2019-01-23T11:16:15.986Z,95.19
2019-01-23T11:17:22.352Z,95.39
2019-01-23T11:18:28.698Z,94.54
2019-01-23T11:19:34.651Z,94.77
2019-01-23T11:20:40.633Z,94.67
2019-01-23T11:21:46.657Z,93.98
2019-01-23T11:22:52.956Z,93.98
2019-01-23T11:23:59.286Z,94.00
2019-01-23T11:25:04.972Z,94.11
2019-01-23T11:26:11.050Z,94.04
2019-01-23T11:27:17.406Z,93.26
2019-01-23T11:28:23.798Z,93.69
2019-01-23T11:29:30.193Z,94.27
2019-01-23T11:30:35.908Z,93.41
2019-01-23T11:31:42.244Z,93.71
2019-01-23T11:32:48.294Z,94.33
2019-01-23T11:33:54.712Z,93.98
2019-01-23T11:35:01.118Z,93.62
2019-01-23T11:36:07.523Z,93.79
2019-01-23T11:37:14.142Z,93.92
2019-01-23T11:38:20.119Z,93.55
2019-01-23T11:39:26.447Z,93.66
2019-01-23T11:40:32.170Z,93.72
2019-01-23T11:41:38.135Z,92.89
2019-01-23T11:42:44.468Z,92.91
2019-01-23T11:43:50.496Z,92.73
2019-01-23T11:44:56.898Z,92.65
2019-01-23T11:46:03.295Z,92.34
2019-01-23T11:47:09.270Z,92.63
2019-01-23T11:48:15.665Z,92.46
2019-01-23T11:49:21.986Z,92.05
2019-01-23T11:50:28.364Z,91.58
2019-01-23T11:51:34.777Z,91.13
2019-01-23T11:52:40.484Z,90.87
2019-01-23T11:53:46.852Z,91.11
2019-01-23T11:54:53.254Z,91.48
2019-01-23T11:55:59.718Z,91.30
2019-01-23T11:57:05.481Z,90.96
2019-01-23T11:58:12.656Z,91.27
2019-01-23T11:59:19.958Z,91.23
2019-01-23T12:00:25.856Z,91.12
2019-01-23T12:01:31.841Z,91.87
2019-01-23T12:02:38.250Z,91.47
2019-01-23T12:03:44.614Z,91.17
2019-01-23T12:04:50.954Z,90.92
2019-01-23T12:05:57.390Z,90.78
2019-01-23T12:07:03.421Z,90.95
2019-01-23T12:08:09.151Z,90.50
2019-01-23T12:09:14.802Z,90.27
2019-01-23T12:10:20.425Z,90.21
2019-01-23T12:11:26.837Z,90.34
2019-01-23T12:12:33.287Z,90.53
2019-01-23T12:13:39.649Z,90.77
2019-01-23T12:14:45.697Z,90.67
2019-01-23T12:15:52.114Z,91.26
2019-01-23T12:16:58.143Z,91.37
2019-01-23T12:18:04.109Z,91.32
2019-01-23T12:19:10.753Z,91.64
2019-01-23T12:20:16.975Z,91.44
2019-01-23T12:21:23.167Z,91.88
2019-01-23T12:22:29.612Z,91.71
2019-01-23T12:23:36.009Z,91.60
2019-01-23T12:24:42.436Z,91.50
2019-01-23T12:25:48.781Z,90.95
2019-01-23T12:26:55.196Z,91.03
2019-01-23T12:28:01.564Z,90.31
2019-01-23T12:29:07.610Z,90.46
2019-01-23T12:30:17.779Z,90.95
2019-01-23T12:31:24.182Z,91.29
2019-01-23T12:32:30.565Z,91.00
2019-01-23T12:33:37.013Z,91.28
2019-01-23T12:34:43.398Z,91.21
2019-01-23T12:35:49.388Z,91.16
2019-01-23T12:36:55.773Z,91.64
2019-01-23T12:38:01.792Z,91.37
2019-01-23T12:39:07.849Z,91.41
2019-01-23T12:40:14.977Z,91.31
2019-01-23T12:41:21.931Z,91.31
2019-01-23T12:42:29.014Z,90.87
2019-01-23T12:43:35.882Z,90.85
2019-01-23T12:44:41.543Z,91.01
2019-01-23T12:45:47.612Z,91.27
2019-01-23T12:46:53.588Z,91.50
2019-01-23T12:47:59.541Z,91.46
2019-01-23T12:49:05.947Z,91.62
2019-01-23T12:50:11.646Z,91.66
2019-01-23T12:51:19.050Z,91.96
2019-01-23T12:52:23.989Z,91.86
2019-01-23T12:53:30.317Z,90.99
2019-01-23T12:54:36.317Z,90.99
2019-01-23T12:55:42.666Z,90.28
2019-01-23T12:56:49.123Z,90.32
2019-01-23T12:57:55.142Z,90.53
2019-01-23T12:59:01.497Z,90.47
2019-01-23T13:00:12.246Z,90.62
2019-01-23T13:01:18.601Z,90.52
2019-01-23T13:02:24.979Z,90.35
2019-01-23T13:03:31.416Z,90.31
2019-01-23T13:04:37.797Z,89.60
2019-01-23T13:05:43.793Z,89.39
2019-01-23T13:06:49.870Z,89.78
2019-01-23T13:07:55.562Z,89.73
2019-01-23T13:09:01.928Z,89.81
2019-01-23T13:10:08.632Z,89.58
2019-01-23T13:11:14.680Z,89.29
2019-01-23T13:12:21.880Z,88.99
2019-01-23T13:13:28.335Z,89.00
2019-01-23T13:14:34.387Z,88.89
2019-01-23T13:15:41.727Z,88.65
2019-01-23T13:16:48.235Z,88.81
2019-01-23T13:17:53.964Z,88.14
2019-01-23T13:19:00.315Z,88.26
2019-01-23T13:20:06.808Z,88.37
2019-01-23T13:21:13.269Z,88.39
2019-01-23T13:22:19.723Z,88.11
2019-01-23T13:23:26.194Z,87.14
2019-01-23T13:24:32.680Z,86.92
2019-01-23T13:25:39.053Z,87.07
2019-01-23T13:26:45.112Z,87.51
2019-01-23T13:27:50.785Z,86.98
2019-01-23T13:28:56.792Z,87.68
2019-01-23T13:30:02.828Z,87.76
2019-01-23T13:31:09.242Z,87.74
2019-01-23T13:32:15.654Z,87.69
2019-01-23T13:33:22.047Z,87.18
2019-01-23T13:34:28.458Z,86.96
2019-01-23T13:35:34.100Z,86.78
2019-01-23T13:36:40.466Z,86.80
2019-01-23T13:37:46.525Z,86.86
2019-01-23T13:38:52.894Z,87.01
2019-01-23T13:39:59.257Z,87.54
2019-01-23T13:41:05.364Z,87.56
2019-01-23T13:42:11.387Z,87.83
2019-01-23T13:43:17.749Z,87.77
2019-01-23T13:44:24.204Z,88.22
2019-01-23T13:45:31.232Z,88.13
2019-01-23T13:46:38.178Z,88.20
2019-01-23T13:47:44.185Z,88.49
2019-01-23T13:48:50.598Z,88.83
2019-01-23T13:49:56.944Z,88.49
2019-01-23T13:51:02.650Z,88.56
2019-01-23T13:52:08.683Z,88.42
2019-01-23T13:53:14.743Z,88.65
2019-01-23T13:54:21.070Z,88.89
2019-01-23T13:55:27.080Z,89.11
2019-01-23T13:56:33.494Z,89.04
2019-01-23T13:57:40.131Z,88.89
2019-01-23T13:58:46.509Z,88.84
2019-01-23T13:59:52.861Z,88.87
2019-01-23T14:00:59.322Z,89.19
2019-01-23T14:02:05.021Z,89.15
2019-01-23T14:03:10.681Z,89.06
2019-01-23T14:04:17.086Z,89.21
2019-01-23T14:05:22.841Z,89.35
2019-01-23T14:06:29.035Z,89.36
2019-01-23T14:07:35.817Z,89.77
2019-01-23T14:08:42.249Z,89.55
2019-01-23T14:09:48.566Z,89.87
2019-01-23T14:10:54.962Z,89.96
2019-01-23T14:12:01.925Z,90.14
2019-01-23T14:13:07.610Z,89.91
2019-01-23T14:14:14.001Z,89.99
2019-01-23T14:15:23.938Z,90.18
2019-01-23T14:16:30.065Z,90.18
2019-01-23T14:17:36.453Z,90.26
2019-01-23T14:18:42.851Z,89.90
2019-01-23T14:19:49.254Z,89.95
2019-01-23T14:20:55.280Z,89.99
2019-01-23T14:22:01.343Z,89.99
2019-01-23T14:23:07.842Z,89.92
2019-01-23T14:24:14.891Z,89.89